createdAt,value
2022-11-13T00:01:39.768Z,97742.72
2022-11-13T00:04:36.598Z,97750.66
2022-11-13T00:07:33.438Z,97737.88
2022-11-13T00:10:30.277Z,97736.28
2022-11-13T00:13:30.324Z,97732.78
2022-11-13T00:16:27.555Z,97730.59
2022-11-13T00:19:24.383Z,97734.50
2022-11-13T00:22:21.743Z,97723.13
2022-11-13T00:25:18.554Z,97722.75
2022-11-13T00:28:15.448Z,97723.56
2022-11-13T00:31:15.437Z,97721.94
2022-11-13T00:34:40.918Z,97718.91
2022-11-13T00:37:29.128Z,97721.28
2022-11-13T00:40:26.001Z,97718.25
2022-11-13T00:43:23.086Z,97714.00
2022-11-13T00:46:20.170Z,97711.94
2022-11-13T00:49:17.715Z,97705.00
2022-11-13T00:52:14.547Z,97698.91
2022-11-13T00:55:11.367Z,97696.59
2022-11-13T00:58:08.408Z,97692.31
2022-11-13T01:01:13.432Z,97690.53
2022-11-13T01:04:10.370Z,97688.38
2022-11-13T01:07:07.298Z,97697.06
2022-11-13T01:10:06.170Z,97691.06
2022-11-13T01:13:03.006Z,97696.31
2022-11-13T01:15:59.838Z,97698.94
2022-11-13T01:18:57.295Z,97688.25
2022-11-13T01:21:54.116Z,97689.84
2022-11-13T01:24:51.016Z,97683.13
2022-11-13T01:27:47.834Z,97680.63
2022-11-13T01:30:44.679Z,97681.81
2022-11-13T01:33:41.504Z,97675.88
2022-11-13T01:36:38.327Z,97680.97
2022-11-13T01:39:35.172Z,97672.69
2022-11-13T01:42:34.913Z,97671.00
2022-11-13T01:45:59.546Z,97662.25
2022-11-13T01:49:07.937Z,97666.91
2022-11-13T01:52:19.367Z,97653.84
2022-11-13T01:55:19.370Z,97665.00
2022-11-13T01:58:16.422Z,97657.72
2022-11-13T02:01:13.250Z,97651.50
2022-11-13T02:04:10.459Z,97647.31
2022-11-13T02:07:16.417Z,97641.75
2022-11-13T02:10:13.558Z,97642.44
2022-11-13T02:13:12.403Z,97639.09
2022-11-13T02:16:11.651Z,97639.22
2022-11-13T02:19:27.321Z,97643.78
2022-11-13T02:22:53.194Z,97632.78
2022-11-13T02:25:54.385Z,97632.63
2022-11-13T02:28:51.230Z,97637.56
2022-11-13T02:31:48.281Z,97635.44
2022-11-13T02:34:45.186Z,97630.72
2022-11-13T02:37:42.635Z,97625.09
2022-11-13T02:40:39.616Z,97629.34
2022-11-13T02:43:36.459Z,97625.22
2022-11-13T02:46:34.310Z,97631.41
2022-11-13T02:49:31.346Z,97628.66
2022-11-13T02:52:29.945Z,97625.28
2022-11-13T02:55:26.857Z,97628.09
2022-11-13T02:58:23.701Z,97626.94
2022-11-13T03:01:20.650Z,97618.03
2022-11-13T03:04:17.611Z,97614.38
2022-11-13T03:07:15.145Z,97606.59
2022-11-13T03:10:12.337Z,97610.06
2022-11-13T03:13:09.204Z,97615.34
2022-11-13T03:16:15.159Z,97611.22
2022-11-13T03:19:12.016Z,97619.06
2022-11-13T03:22:08.914Z,97609.53
2022-11-13T03:25:10.439Z,97606.31
2022-11-13T03:28:07.879Z,97614.03
2022-11-13T03:31:05.222Z,97617.16
2022-11-13T03:34:02.153Z,97608.44
2022-11-13T03:36:58.982Z,97611.50
2022-11-13T03:39:55.818Z,97603.97
2022-11-13T03:42:52.661Z,97613.41
2022-11-13T03:45:49.641Z,97608.97
2022-11-13T03:48:46.485Z,97618.31
2022-11-13T03:51:43.358Z,97616.78
2022-11-13T03:54:40.219Z,97614.66
2022-11-13T03:57:37.045Z,97619.81
2022-11-13T04:00:34.463Z,97611.28
2022-11-13T04:03:31.319Z,97607.19
2022-11-13T04:06:28.183Z,97601.69
2022-11-13T04:09:25.246Z,97614.31
2022-11-13T04:12:22.114Z,97618.63
2022-11-13T04:15:18.964Z,97611.50
2022-11-13T04:18:15.777Z,97595.03
2022-11-13T04:21:12.584Z,97602.13
2022-11-13T04:24:09.506Z,97593.59
2022-11-13T04:27:06.342Z,97588.19
2022-11-13T04:30:05.475Z,97591.28
2022-11-13T04:33:02.325Z,97589.66
2022-11-13T04:35:59.137Z,97587.09
2022-11-13T04:38:56.031Z,97590.59
2022-11-13T04:42:11.464Z,97587.72
2022-11-13T04:45:09.197Z,97587.88
2022-11-13T04:48:06.070Z,97586.25
2022-11-13T04:51:02.920Z,97586.97
2022-11-13T04:53:59.773Z,97582.03
2022-11-13T04:56:56.934Z,97573.72
2022-11-13T04:59:53.823Z,97569.03
2022-11-13T05:02:50.718Z,97573.88
2022-11-13T05:05:47.574Z,97564.19
2022-11-13T05:08:44.439Z,97556.81
2022-11-13T05:11:41.270Z,97550.56
2022-11-13T05:14:39.629Z,97546.22
2022-11-13T05:17:36.453Z,97543.00
2022-11-13T05:20:33.286Z,97532.41
2022-11-13T05:23:30.142Z,97535.06
2022-11-13T05:26:28.074Z,97530.25
2022-11-13T05:29:25.325Z,97531.69
2022-11-13T05:32:22.515Z,97526.69
2022-11-13T05:35:19.389Z,97527.34
2022-11-13T05:38:16.213Z,97532.84
2022-11-13T05:41:22.411Z,97525.38
2022-11-13T05:44:19.261Z,97510.94
2022-11-13T05:47:16.136Z,97511.00
2022-11-13T05:50:13.102Z,97516.78
2022-11-13T05:53:09.934Z,97517.22
2022-11-13T05:56:14.198Z,97512.41
2022-11-13T05:59:11.063Z,97509.47
2022-11-13T06:02:08.129Z,97499.13
2022-11-13T06:05:05.548Z,97497.66
2022-11-13T06:08:02.382Z,97490.09
2022-11-13T06:11:05.562Z,97489.47
2022-11-13T06:14:02.552Z,97494.59
2022-11-13T06:16:59.490Z,97486.03
2022-11-13T06:19:56.362Z,97485.75
2022-11-13T06:22:53.217Z,97484.94
2022-11-13T06:25:50.094Z,97486.59
2022-11-13T06:28:47.707Z,97481.09
2022-11-13T06:31:44.582Z,97485.94
2022-11-13T06:34:41.700Z,97486.09
2022-11-13T06:37:38.522Z,97480.13
2022-11-13T06:40:38.881Z,97484.19
2022-11-13T06:43:35.741Z,97480.97
2022-11-13T06:46:32.788Z,97474.78
2022-11-13T06:49:29.608Z,97478.47
2022-11-13T06:52:26.477Z,97481.81
2022-11-13T06:55:23.312Z,97466.09
2022-11-13T06:58:20.645Z,97454.72
2022-11-13T07:01:21.059Z,97454.75
2022-11-13T07:04:17.917Z,97451.38
2022-11-13T07:07:14.781Z,97449.75
2022-11-13T07:10:11.653Z,97443.66
2022-11-13T07:13:09.365Z,97437.19
2022-11-13T07:16:16.416Z,97438.03
2022-11-13T07:19:14.597Z,97436.13
2022-11-13T07:22:12.049Z,97436.88
2022-11-13T07:25:09.444Z,97436.28
2022-11-13T07:28:06.300Z,97432.72
2022-11-13T07:31:03.660Z,97438.13
2022-11-13T07:34:00.521Z,97434.63
2022-11-13T07:36:57.369Z,97437.31
2022-11-13T07:39:54.245Z,97441.06
2022-11-13T07:43:03.181Z,97428.28
2022-11-13T07:46:00.865Z,97436.53
2022-11-13T07:48:57.696Z,97435.69
2022-11-13T07:51:54.542Z,97431.50
2022-11-13T07:54:51.355Z,97427.25
2022-11-13T07:57:48.157Z,97425.63
2022-11-13T08:00:45.233Z,97418.22
2022-11-13T08:03:42.121Z,97426.03
2022-11-13T08:06:39.281Z,97413.94
2022-11-13T08:09:36.244Z,97419.56
2022-11-13T08:12:33.062Z,97413.63
2022-11-13T08:15:30.944Z,97413.66
2022-11-13T08:18:29.799Z,97414.84
2022-11-13T08:21:26.837Z,97409.75
2022-11-13T08:24:23.764Z,97399.66
2022-11-13T08:27:22.337Z,97406.88
2022-11-13T08:30:19.434Z,97391.19
2022-11-13T08:33:16.811Z,97388.78
2022-11-13T08:36:13.646Z,97385.81
2022-11-13T08:39:10.550Z,97390.78
2022-11-13T08:42:07.370Z,97387.56
2022-11-13T08:45:05.230Z,97384.22
2022-11-13T08:48:04.775Z,97375.72
2022-11-13T08:51:01.797Z,97373.22
2022-11-13T08:53:58.629Z,97374.81
2022-11-13T08:56:57.285Z,97383.19
2022-11-13T08:59:56.541Z,97362.97
2022-11-13T09:03:01.247Z,97364.94
2022-11-13T09:05:58.106Z,97357.66
2022-11-13T09:08:55.043Z,97361.84
2022-11-13T09:11:51.963Z,97350.66
2022-11-13T09:14:48.903Z,97345.72
2022-11-13T09:17:45.773Z,97342.34
2022-11-13T09:20:42.647Z,97338.66
2022-11-13T09:23:39.530Z,97336.66
2022-11-13T09:26:36.407Z,97337.38
2022-11-13T09:29:34.012Z,97335.34
2022-11-13T09:32:31.241Z,97325.63
2022-11-13T09:35:35.758Z,97329.94
2022-11-13T09:38:32.701Z,97321.16
2022-11-13T09:41:46.105Z,97322.53
2022-11-13T09:45:07.514Z,97322.28
2022-11-13T09:48:44.020Z,97316.44
2022-11-13T09:51:41.362Z,97308.03
2022-11-13T09:54:39.209Z,97301.97
2022-11-13T09:57:51.228Z,97304.94
2022-11-13T10:00:48.287Z,97292.56
2022-11-13T10:04:03.410Z,97287.72
2022-11-13T10:07:14.240Z,97282.91
2022-11-13T10:10:20.479Z,97276.75
2022-11-13T10:13:38.382Z,97273.28
2022-11-13T10:16:54.037Z,97268.00
2022-11-13T10:20:02.270Z,97258.84
2022-11-13T10:23:15.071Z,97240.47
2022-11-13T10:26:17.925Z,97236.38
2022-11-13T10:29:18.609Z,97225.28
2022-11-13T10:32:33.071Z,97229.56
2022-11-13T10:35:39.682Z,97229.03
2022-11-13T10:38:54.613Z,97209.19
2022-11-13T10:41:54.551Z,97205.81
2022-11-13T10:45:00.708Z,97197.78
2022-11-13T10:48:04.270Z,97187.00
2022-11-13T10:51:21.491Z,97177.59
2022-11-13T10:54:31.622Z,97182.19
2022-11-13T10:57:36.011Z,97165.34
2022-11-13T11:00:36.943Z,97155.38
2022-11-13T11:03:33.812Z,97149.34
2022-11-13T11:07:12.588Z,97139.69
2022-11-13T11:09:53.817Z,97131.06
2022-11-13T11:13:07.043Z,97125.75
2022-11-13T11:16:05.545Z,97115.91
2022-11-13T11:19:08.704Z,97113.34
2022-11-13T11:22:19.645Z,97117.34
2022-11-13T11:25:40.989Z,97106.06
2022-11-13T11:28:53.798Z,97109.38
2022-11-13T11:32:11.936Z,97108.78
2022-11-13T11:35:24.645Z,97117.97
2022-11-13T11:38:42.430Z,97107.47
2022-11-13T11:41:55.570Z,97109.91
2022-11-13T11:45:34.105Z,97113.41
2022-11-13T11:48:33.096Z,97111.53
2022-11-13T11:51:57.875Z,97094.94
2022-11-13T11:55:23.898Z,97090.25
2022-11-13T11:59:01.856Z,97081.88
2022-11-13T12:02:29.346Z,97083.25
2022-11-13T12:06:02.013Z,97073.84
2022-11-13T12:09:08.515Z,97073.75
2022-11-13T12:12:45.633Z,97067.22
2022-11-13T12:16:25.761Z,97052.66
2022-11-13T12:19:56.593Z,97052.31
2022-11-13T12:23:53.589Z,97051.56
2022-11-13T12:27:14.903Z,97054.31
2022-11-13T12:30:57.117Z,97042.72
2022-11-13T12:34:24.753Z,97043.69
2022-11-13T12:37:39.957Z,97047.63
2022-11-13T12:40:51.590Z,97034.34
2022-11-13T12:44:28.636Z,97036.53
2022-11-13T12:47:26.021Z,97024.97
2022-11-13T12:50:32.430Z,97022.72
2022-11-13T12:53:47.870Z,97020.69
2022-11-13T12:56:44.768Z,97021.78
2022-11-13T12:59:55.087Z,97021.59
2022-11-13T13:03:15.893Z,97010.66
2022-11-13T13:06:37.994Z,97001.41
2022-11-13T13:09:56.216Z,96996.88
2022-11-13T13:13:28.640Z,96989.78
2022-11-13T13:16:28.794Z,96983.44
2022-11-13T13:19:33.674Z,96972.41
2022-11-13T13:22:36.166Z,96974.28
2022-11-13T13:25:35.646Z,96958.97
2022-11-13T13:28:33.229Z,96967.19
2022-11-13T13:32:07.419Z,96958.75
2022-11-13T13:35:24.294Z,96960.97
2022-11-13T13:38:49.372Z,96951.78
2022-11-13T13:42:36.995Z,96944.34
2022-11-13T13:45:58.033Z,96937.25
2022-11-13T13:49:03.303Z,96940.25
2022-11-13T13:52:00.186Z,96929.50
2022-11-13T13:54:59.298Z,96918.97
2022-11-13T13:57:57.205Z,96922.53
2022-11-13T14:01:20.207Z,96910.03
2022-11-13T14:04:23.513Z,96913.34
2022-11-13T14:07:29.792Z,96906.75
2022-11-13T14:10:28.633Z,96901.34
2022-11-13T14:13:29.571Z,96901.44
2022-11-13T14:16:26.415Z,96900.94
2022-11-13T14:19:23.592Z,96890.00
2022-11-13T14:22:21.232Z,96890.63
2022-11-13T14:25:27.584Z,96894.16
2022-11-13T14:28:31.316Z,96887.16
2022-11-13T14:31:32.592Z,96878.03
2022-11-13T14:34:31.018Z,96879.00
2022-11-13T14:37:44.607Z,96889.56
2022-11-13T14:40:48.859Z,96875.06
2022-11-13T14:43:51.812Z,96886.78
2022-11-13T14:47:06.517Z,96876.50
2022-11-13T14:50:35.116Z,96885.00
2022-11-13T14:53:36.043Z,96882.31
2022-11-13T14:56:41.058Z,96882.56
2022-11-13T14:59:38.963Z,96898.84
2022-11-13T15:02:36.093Z,96899.97
2022-11-13T15:05:33.324Z,96898.50
2022-11-13T15:08:30.215Z,96899.78
2022-11-13T15:11:27.516Z,96895.81
2022-11-13T15:14:24.634Z,96902.09
2022-11-13T15:17:23.415Z,96900.19
2022-11-13T15:20:27.446Z,96895.22
2022-11-13T15:23:26.465Z,96897.19
2022-11-13T15:26:24.089Z,96901.56
2022-11-13T15:29:21.048Z,96908.72
2022-11-13T15:32:17.936Z,96905.66
2022-11-13T15:35:18.047Z,96919.53
2022-11-13T15:38:14.899Z,96915.97
2022-11-13T15:41:18.533Z,96928.38
2022-11-13T15:44:16.137Z,96926.03
2022-11-13T15:47:36.512Z,96920.97
2022-11-13T15:50:33.848Z,96926.53
2022-11-13T15:53:31.294Z,96930.53
2022-11-13T15:56:29.738Z,96925.09
2022-11-13T15:59:26.590Z,96915.00
2022-11-13T16:02:23.655Z,96912.94
2022-11-13T16:05:23.615Z,96916.69
2022-11-13T16:08:20.537Z,96909.69
2022-11-13T16:11:20.362Z,96912.66
2022-11-13T16:14:21.878Z,96907.72
2022-11-13T16:17:21.493Z,96906.22
2022-11-13T16:20:18.928Z,96911.66
2022-11-13T16:23:17.559Z,96905.94
2022-11-13T16:26:24.432Z,96904.22
2022-11-13T16:29:23.972Z,96897.69
2022-11-13T16:32:21.352Z,96908.28
2022-11-13T16:35:20.823Z,96908.03
2022-11-13T16:38:17.693Z,96902.31
2022-11-13T16:41:16.668Z,96903.72
2022-11-13T16:44:13.594Z,96914.50
2022-11-13T16:47:36.817Z,96910.81
2022-11-13T16:50:36.872Z,96914.34
2022-11-13T16:53:34.064Z,96916.28
2022-11-13T16:56:31.014Z,96922.66
2022-11-13T16:59:27.841Z,96919.25
2022-11-13T17:02:24.655Z,96920.28
2022-11-13T17:05:23.571Z,96909.91
2022-11-13T17:08:21.931Z,96913.94
2022-11-13T17:11:19.591Z,96909.09
2022-11-13T17:14:16.662Z,96906.47
2022-11-13T17:17:17.009Z,96903.53
2022-11-13T17:20:15.522Z,96903.81
2022-11-13T17:23:18.672Z,96894.22
2022-11-13T17:26:15.586Z,96894.00
2022-11-13T17:29:12.703Z,96901.13
2022-11-13T17:32:09.531Z,96901.66
2022-11-13T17:35:06.733Z,96893.19
2022-11-13T17:38:03.611Z,96908.63
2022-11-13T17:41:09.681Z,96903.25
2022-11-13T17:44:06.711Z,96906.44
2022-11-13T17:47:03.542Z,96901.94
2022-11-13T17:50:06.696Z,96908.75
2022-11-13T17:53:04.443Z,96923.09
2022-11-13T17:56:05.167Z,96924.59
2022-11-13T17:59:02.076Z,96932.59
2022-11-13T18:01:58.951Z,96927.47
2022-11-13T18:04:59.038Z,96938.41
2022-11-13T18:07:55.890Z,96933.94
2022-11-13T18:10:53.148Z,96928.91
2022-11-13T18:13:51.628Z,96927.06
2022-11-13T18:16:48.629Z,96924.75
2022-11-13T18:19:46.065Z,96926.88
2022-11-13T18:22:42.877Z,96926.13
2022-11-13T18:25:41.210Z,96919.78
2022-11-13T18:28:39.813Z,96904.13
2022-11-13T18:31:37.148Z,96901.59
2022-11-13T18:34:34.158Z,96908.91
2022-11-13T18:37:31.349Z,96901.78
2022-11-13T18:40:28.249Z,96912.19
2022-11-13T18:43:26.825Z,96901.63
2022-11-13T18:46:23.948Z,96902.91
2022-11-13T18:49:20.864Z,96909.59
2022-11-13T18:52:17.767Z,96908.81
2022-11-13T18:55:17.260Z,96910.16
2022-11-13T18:58:14.071Z,96902.19
2022-11-13T19:01:21.824Z,96910.09
2022-11-13T19:04:23.867Z,96902.94
2022-11-13T19:07:21.368Z,96899.44
2022-11-13T19:10:18.421Z,96906.88
2022-11-13T19:13:15.231Z,96901.00
2022-11-13T19:16:16.086Z,96894.59
2022-11-13T19:19:18.428Z,96895.06
2022-11-13T19:22:15.259Z,96888.88
2022-11-13T19:25:12.102Z,96885.66
2022-11-13T19:28:08.950Z,96875.09
2022-11-13T19:31:12.763Z,96869.28
2022-11-13T19:34:11.006Z,96869.28
2022-11-13T19:37:07.875Z,96869.00
2022-11-13T19:40:05.338Z,96870.09
2022-11-13T19:43:02.138Z,96862.13
2022-11-13T19:46:07.675Z,96863.22
2022-11-13T19:49:04.673Z,96858.69
2022-11-13T19:52:01.537Z,96857.00
2022-11-13T19:54:58.399Z,96856.16
2022-11-13T19:57:55.235Z,96856.50
2022-11-13T20:00:53.375Z,96863.16
2022-11-13T20:03:59.052Z,96852.22
2022-11-13T20:06:55.947Z,96853.00
2022-11-13T20:09:52.822Z,96836.50
2022-11-13T20:12:49.653Z,96842.63
2022-11-13T20:15:54.526Z,96841.97
2022-11-13T20:18:52.062Z,96845.19
2022-11-13T20:21:49.068Z,96840.88
2022-11-13T20:24:45.871Z,96848.69
2022-11-13T20:27:47.170Z,96851.66
2022-11-13T20:30:44.525Z,96844.38
2022-11-13T20:33:41.641Z,96853.34
2022-11-13T20:36:39.693Z,96853.09
2022-11-13T20:39:36.568Z,96855.00
2022-11-13T20:42:33.407Z,96852.03
2022-11-13T20:45:30.271Z,96847.41
2022-11-13T20:48:27.319Z,96853.25
2022-11-13T20:51:28.720Z,96849.69
2022-11-13T20:54:25.551Z,96856.81
2022-11-13T20:57:22.465Z,96845.22
2022-11-13T21:00:19.387Z,96850.84
2022-11-13T21:03:16.269Z,96851.06
2022-11-13T21:06:20.908Z,96843.25
2022-11-13T21:09:17.774Z,96841.28
2022-11-13T21:12:14.584Z,96841.00
2022-11-13T21:15:11.440Z,96846.84
2022-11-13T21:18:08.727Z,96832.19
2022-11-13T21:21:13.738Z,96829.56
2022-11-13T21:24:10.600Z,96823.59
2022-11-13T21:27:07.436Z,96824.25
2022-11-13T21:30:04.841Z,96824.78
2022-11-13T21:33:01.686Z,96828.84
2022-11-13T21:36:08.360Z,96824.53
2022-11-13T21:39:05.203Z,96814.47
2022-11-13T21:42:02.036Z,96824.63
2022-11-13T21:44:59.432Z,96824.25
2022-11-13T21:47:56.263Z,96805.63
2022-11-13T21:50:53.155Z,96812.41
2022-11-13T21:53:50.232Z,96814.97
2022-11-13T21:56:47.097Z,96806.22
2022-11-13T21:59:43.919Z,96796.47
2022-11-13T22:02:40.790Z,96801.94
2022-11-13T22:05:38.101Z,96803.16
2022-11-13T22:08:34.995Z,96798.91
2022-11-13T22:11:35.765Z,96800.81
2022-11-13T22:14:32.532Z,96803.63
2022-11-13T22:17:29.370Z,96803.56
2022-11-13T22:20:26.363Z,96801.41
2022-11-13T22:23:23.319Z,96803.81
2022-11-13T22:26:22.896Z,96798.78
2022-11-13T22:29:19.722Z,96806.31
2022-11-13T22:32:16.542Z,96807.00
2022-11-13T22:35:13.460Z,96808.88
2022-11-13T22:38:11.355Z,96809.19
2022-11-13T22:41:23.371Z,96792.06
2022-11-13T22:44:20.848Z,96799.31
2022-11-13T22:47:17.671Z,96793.16
2022-11-13T22:50:14.636Z,96798.94
2022-11-13T22:53:14.591Z,96786.06
2022-11-13T22:56:13.947Z,96778.38
2022-11-13T22:59:12.711Z,96775.84
2022-11-13T23:02:09.612Z,96779.28
2022-11-13T23:05:07.443Z,96770.72
2022-11-13T23:08:04.486Z,96766.00
2022-11-13T23:11:01.298Z,96754.50
2022-11-13T23:14:00.130Z,96754.38
2022-11-13T23:16:56.955Z,96749.09
2022-11-13T23:19:53.775Z,96742.28
2022-11-13T23:22:50.586Z,96738.72
2022-11-13T23:25:47.426Z,96729.97
2022-11-13T23:28:44.768Z,96726.16
2022-11-13T23:31:41.595Z,96706.50
2022-11-13T23:34:58.714Z,96708.28
2022-11-13T23:37:55.224Z,96699.75
2022-11-13T23:40:57.690Z,96692.06
2022-11-13T23:44:08.219Z,96682.41
2022-11-13T23:47:05.899Z,96683.97
2022-11-13T23:50:02.881Z,96680.31
2022-11-13T23:52:59.709Z,96676.03
2022-11-13T23:55:56.906Z,96694.84
2022-11-13T23:58:53.733Z,96684.59
